< < Back
Terminal Aerodrome Forecast


Current Version              Previous Versions:   1  2  3  4  5  6  7  8  9  

Terminal Aerodrome Forecast

531
FTUS44 KMOB 291733
TAFMOB
TAF
KMOB 291733Z 2918/3018 VRB03KT P6SM SCT040 SCT250
     FM292000 20007KT P6SM SCT040 BKN250
     FM300100 VRB03KT P6SM SCT250=



Latest METAR

951
SAUS80 KWBC 300400 CCA
MTRMOB
METAR KMOB 300356Z 27003KT 10SM CLR 23/21 A3006 RMK AO2 SLP176
T02280211


USA.gov is the U.S. government's official web portal to all federal, state and local government web resources and services.